Lake Wazeecha, Wisconsin
Current Conditions -  °F | °C
As of 5:54 PM on Thursday 27 Nov 2014 (Local Time) from KISW Reporting Station
Clear Clear  
Wind Chill:   Ceiling: Unl
Heat Index:   Visibility: NA
Dew Point: -2°   Wind: 3mph
Humidity: 69%   Direction: 330°NNW
Pressure: 30.38"   Gusts: NA
Location:  44.3431°N, 89.7334°W
Report Text: KISW 272354Z AUTO 33003KT CLR M14/M19 A3038 RMK AO2 SLP311 T11441189 11100 21144 58001 $
Loading
Personal Weather Stations






























Interactive Weather Map New forecast layout! Learn more

10-Day Weather Forecast

Advertisements
Track Severe Weather on mobile